createdAt,value
2018-12-27T00:01:04.898Z,4.40
2018-12-27T00:02:10.176Z,4.70
2018-12-27T00:03:15.561Z,4.40
2018-12-27T00:04:20.812Z,4.40
2018-12-27T00:05:27.441Z,4.40
2018-12-27T00:06:32.513Z,4.40
2018-12-27T00:07:37.535Z,4.30
2018-12-27T00:08:42.832Z,4.30
2018-12-27T00:09:47.875Z,4.40
2018-12-27T00:10:55.459Z,4.30
2018-12-27T00:12:00.560Z,4.40
2018-12-27T00:13:05.714Z,4.40
2018-12-27T00:14:11.582Z,4.30
2018-12-27T00:15:18.123Z,4.30
2018-12-27T00:16:25.221Z,4.30
2018-12-27T00:17:34.294Z,4.20
2018-12-27T00:18:39.565Z,4.20
2018-12-27T00:19:45.205Z,4.30
2018-12-27T00:20:53.035Z,4.40
2018-12-27T00:22:00.596Z,4.40
2018-12-27T00:23:05.879Z,4.40
2018-12-27T00:24:16.150Z,4.40
2018-12-27T00:25:21.631Z,4.50
2018-12-27T00:26:28.527Z,4.50
2018-12-27T00:27:37.703Z,4.50
2018-12-27T00:28:48.412Z,4.50
2018-12-27T00:29:53.550Z,4.50
2018-12-27T00:30:58.769Z,4.50
2018-12-27T00:32:04.508Z,4.50
2018-12-27T00:33:09.985Z,4.40
2018-12-27T00:34:15.186Z,4.40
2018-12-27T00:35:20.380Z,4.40
2018-12-27T00:36:25.684Z,4.40
2018-12-27T00:37:31.192Z,4.40
2018-12-27T00:38:38.026Z,4.50
2018-12-27T00:39:43.185Z,4.40
2018-12-27T00:40:53.522Z,4.40
2018-12-27T00:41:59.212Z,4.50
2018-12-27T00:43:04.654Z,4.50
2018-12-27T00:44:16.520Z,4.50
2018-12-27T00:45:21.812Z,4.50
2018-12-27T00:46:27.191Z,4.40
2018-12-27T00:47:32.446Z,4.40
2018-12-27T00:48:37.882Z,4.60
2018-12-27T00:49:44.847Z,4.40
2018-12-27T00:50:50.487Z,4.40
2018-12-27T00:51:55.899Z,4.40
2018-12-27T00:53:01.117Z,4.40
2018-12-27T00:54:07.604Z,4.30
2018-12-27T00:55:12.898Z,4.40
2018-12-27T00:56:18.200Z,4.30
2018-12-27T00:57:23.458Z,4.30
2018-12-27T00:58:28.747Z,4.40
2018-12-27T00:59:34.020Z,4.40
2018-12-27T01:00:39.211Z,4.40
2018-12-27T01:01:47.283Z,4.40
2018-12-27T01:02:52.967Z,4.40
2018-12-27T01:03:58.967Z,4.40
2018-12-27T01:05:06.293Z,4.40
2018-12-27T01:06:11.545Z,4.40
2018-12-27T01:07:18.310Z,4.40
2018-12-27T01:08:23.589Z,4.40
2018-12-27T01:09:29.335Z,4.40
2018-12-27T01:10:34.577Z,4.40
2018-12-27T01:11:40.099Z,4.40
2018-12-27T01:12:46.935Z,4.40
2018-12-27T01:13:52.374Z,4.40
2018-12-27T01:14:58.054Z,4.40
2018-12-27T01:16:03.247Z,4.40
2018-12-27T01:17:08.617Z,4.40
2018-12-27T01:18:13.775Z,4.50
2018-12-27T01:19:19.062Z,4.50
2018-12-27T01:20:26.559Z,4.40
2018-12-27T01:21:32.344Z,4.40
2018-12-27T01:22:37.556Z,4.40
2018-12-27T01:23:44.119Z,4.40
2018-12-27T01:24:49.377Z,4.30
2018-12-27T01:25:57.064Z,4.40
2018-12-27T01:27:02.248Z,4.40
2018-12-27T01:28:07.722Z,4.40
2018-12-27T01:29:13.300Z,4.40
2018-12-27T01:30:18.491Z,4.40
2018-12-27T01:31:23.823Z,4.40
2018-12-27T01:32:29.506Z,4.40
2018-12-27T01:33:34.683Z,4.40
2018-12-27T01:34:39.952Z,4.40
2018-12-27T01:35:46.146Z,4.40
2018-12-27T01:36:51.334Z,4.40
2018-12-27T01:37:56.535Z,4.40
2018-12-27T01:39:01.788Z,4.40
2018-12-27T01:40:07.324Z,4.40
2018-12-27T01:41:12.523Z,4.30
2018-12-27T01:42:22.014Z,4.40
2018-12-27T01:43:24.884Z,4.50
2018-12-27T01:44:30.509Z,4.40
2018-12-27T01:45:35.783Z,4.30
2018-12-27T01:46:40.948Z,4.40
2018-12-27T01:47:46.151Z,4.30
2018-12-27T01:48:51.486Z,4.40
2018-12-27T01:49:59.569Z,4.50
2018-12-27T01:51:04.851Z,4.40
2018-12-27T01:52:10.028Z,4.40
2018-12-27T01:53:15.200Z,4.40
2018-12-27T01:54:20.427Z,4.40
2018-12-27T01:55:27.281Z,4.40
2018-12-27T01:56:33.827Z,4.40
2018-12-27T01:57:39.081Z,4.40
2018-12-27T01:58:44.295Z,4.40
2018-12-27T01:59:57.919Z,4.40
2018-12-27T02:01:08.376Z,4.40
2018-12-27T02:02:13.651Z,4.50
2018-12-27T02:03:26.473Z,4.40
2018-12-27T02:04:27.144Z,4.40
2018-12-27T02:05:32.384Z,4.50
2018-12-27T02:06:38.178Z,4.40
2018-12-27T02:07:43.372Z,4.40
2018-12-27T02:08:48.595Z,4.40
2018-12-27T02:09:53.860Z,4.40
2018-12-27T02:10:59.154Z,4.40
2018-12-27T02:12:04.560Z,4.40
2018-12-27T02:13:09.805Z,4.40
2018-12-27T02:14:14.996Z,4.50
2018-12-27T02:15:20.316Z,4.40
2018-12-27T02:16:25.499Z,4.40
2018-12-27T02:17:30.728Z,4.40
2018-12-27T02:18:35.968Z,4.40
2018-12-27T02:19:41.136Z,4.60
2018-12-27T02:20:46.545Z,4.40
2018-12-27T02:21:51.695Z,4.40
2018-12-27T02:22:57.493Z,4.40
2018-12-27T02:24:02.706Z,4.40
2018-12-27T02:25:08.479Z,4.40
2018-12-27T02:26:13.821Z,4.40
2018-12-27T02:27:19.327Z,4.30
2018-12-27T02:28:24.920Z,4.30
2018-12-27T02:29:30.229Z,4.30
2018-12-27T02:30:35.409Z,4.40
2018-12-27T02:31:40.923Z,4.30
2018-12-27T02:32:46.186Z,4.30
2018-12-27T02:33:51.743Z,4.30
2018-12-27T02:34:57.151Z,4.30
2018-12-27T02:36:02.319Z,4.20
2018-12-27T02:37:08.064Z,4.30
2018-12-27T02:38:13.809Z,4.30
2018-12-27T02:39:19.142Z,4.30
2018-12-27T02:40:25.915Z,4.30
2018-12-27T02:41:31.098Z,4.30
2018-12-27T02:42:36.308Z,4.20
2018-12-27T02:43:41.622Z,4.20
2018-12-27T02:44:47.074Z,4.20
2018-12-27T02:45:52.286Z,4.20
2018-12-27T02:46:57.606Z,4.20
2018-12-27T02:48:02.956Z,4.20
2018-12-27T02:49:09.029Z,4.20
2018-12-27T02:50:14.496Z,4.20
2018-12-27T02:51:21.420Z,4.20
2018-12-27T02:52:27.364Z,4.20
2018-12-27T02:53:32.578Z,4.40
2018-12-27T02:54:37.753Z,4.20
2018-12-27T02:55:45.875Z,4.00
2018-12-27T02:56:51.039Z,4.20
2018-12-27T02:58:03.639Z,4.20
2018-12-27T02:59:11.315Z,4.20
2018-12-27T03:00:17.271Z,4.20
2018-12-27T03:01:22.668Z,4.20
2018-12-27T03:02:28.736Z,4.20
2018-12-27T03:03:34.398Z,4.20
2018-12-27T03:04:39.623Z,4.20
2018-12-27T03:05:44.788Z,4.20
2018-12-27T03:06:50.039Z,4.20
2018-12-27T03:07:55.223Z,4.20
2018-12-27T03:09:01.460Z,4.20
2018-12-27T03:10:06.728Z,4.20
2018-12-27T03:11:13.459Z,4.20
2018-12-27T03:12:26.251Z,4.10
2018-12-27T03:13:32.654Z,4.10
2018-12-27T03:14:41.886Z,4.10
2018-12-27T03:15:48.417Z,4.10
2018-12-27T03:16:53.822Z,4.10
2018-12-27T03:17:58.984Z,4.10
2018-12-27T03:19:04.161Z,4.20
2018-12-27T03:20:09.458Z,4.10
2018-12-27T03:21:14.958Z,4.10
2018-12-27T03:22:20.139Z,4.10
2018-12-27T03:23:28.039Z,4.10
2018-12-27T03:24:36.272Z,4.10
2018-12-27T03:25:42.219Z,4.10
2018-12-27T03:26:47.534Z,4.10
2018-12-27T03:27:52.688Z,4.10
2018-12-27T03:28:57.864Z,4.10
2018-12-27T03:30:03.597Z,4.10
2018-12-27T03:31:08.866Z,4.10
2018-12-27T03:32:14.290Z,4.10
2018-12-27T03:33:19.551Z,4.10
2018-12-27T03:34:24.726Z,4.10
2018-12-27T03:35:30.268Z,4.10
2018-12-27T03:36:35.550Z,4.10
2018-12-27T03:37:40.758Z,4.10
2018-12-27T03:38:45.942Z,4.00
2018-12-27T03:39:51.360Z,4.00
2018-12-27T03:40:56.643Z,4.00
2018-12-27T03:42:01.847Z,4.00
2018-12-27T03:43:07.051Z,4.00
2018-12-27T03:44:12.557Z,4.00
2018-12-27T03:45:17.780Z,3.90
2018-12-27T03:46:23.182Z,3.90
2018-12-27T03:47:28.411Z,3.90
2018-12-27T03:48:33.704Z,3.90
2018-12-27T03:49:39.028Z,3.90
2018-12-27T03:50:44.328Z,3.90
2018-12-27T03:51:49.595Z,3.90
2018-12-27T03:52:54.768Z,3.90
2018-12-27T03:54:03.086Z,3.80
2018-12-27T03:55:08.947Z,3.80
2018-12-27T03:56:14.259Z,3.80
2018-12-27T03:57:19.526Z,4.00
2018-12-27T03:58:24.914Z,3.80
2018-12-27T03:59:37.052Z,3.90
2018-12-27T04:00:42.546Z,3.80
2018-12-27T04:01:48.030Z,3.80
2018-12-27T04:02:53.184Z,3.80
2018-12-27T04:04:01.521Z,3.80
2018-12-27T04:05:05.195Z,3.80
2018-12-27T04:06:10.928Z,3.80
2018-12-27T04:07:16.129Z,3.70
2018-12-27T04:08:21.315Z,3.80
2018-12-27T04:09:29.492Z,3.80
2018-12-27T04:10:34.677Z,3.80
2018-12-27T04:11:39.835Z,3.80
2018-12-27T04:12:45.124Z,3.80
2018-12-27T04:13:50.309Z,3.80
2018-12-27T04:14:55.482Z,3.80
2018-12-27T04:16:00.504Z,3.80
2018-12-27T04:17:05.526Z,3.80
2018-12-27T04:18:13.827Z,3.80
2018-12-27T04:19:18.922Z,3.80
2018-12-27T04:20:24.038Z,3.80
2018-12-27T04:21:29.263Z,3.80
2018-12-27T04:22:34.369Z,3.80
2018-12-27T04:23:40.934Z,3.80
2018-12-27T04:24:46.641Z,3.80
2018-12-27T04:25:54.680Z,3.80
2018-12-27T04:26:59.760Z,3.80
2018-12-27T04:28:04.887Z,3.80
2018-12-27T04:29:09.953Z,3.90
2018-12-27T04:30:15.179Z,3.90
2018-12-27T04:31:21.080Z,3.80
2018-12-27T04:32:26.329Z,3.90
2018-12-27T04:33:31.746Z,3.90
2018-12-27T04:34:37.151Z,3.80
2018-12-27T04:35:42.345Z,3.80
2018-12-27T04:36:48.294Z,3.90
2018-12-27T04:37:53.343Z,3.90
2018-12-27T04:38:58.351Z,4.00
2018-12-27T04:40:03.355Z,3.90
2018-12-27T04:41:08.362Z,3.80
2018-12-27T04:42:13.803Z,3.80
2018-12-27T04:43:19.771Z,3.80
2018-12-27T04:44:25.124Z,3.80
2018-12-27T04:45:30.084Z,3.80
2018-12-27T04:46:35.053Z,3.90
2018-12-27T04:47:40.027Z,3.90
2018-12-27T04:48:45.053Z,3.90
2018-12-27T04:49:50.051Z,3.90
2018-12-27T04:50:55.031Z,3.90
2018-12-27T04:52:00.147Z,3.90
2018-12-27T04:53:05.489Z,3.80
2018-12-27T04:54:10.662Z,3.80
2018-12-27T04:55:15.843Z,3.80
2018-12-27T04:58:27.311Z,3.90
2018-12-27T04:59:35.412Z,3.90
2018-12-27T05:00:40.382Z,3.80
2018-12-27T05:01:45.391Z,3.80
2018-12-27T05:02:50.439Z,3.80
2018-12-27T05:03:55.458Z,3.80
2018-12-27T05:05:00.744Z,3.80
2018-12-27T05:06:07.630Z,3.80
2018-12-27T05:07:12.647Z,3.80
2018-12-27T05:08:17.696Z,3.70
2018-12-27T05:09:22.857Z,3.70
2018-12-27T05:10:28.237Z,3.70
2018-12-27T05:11:34.027Z,3.70
2018-12-27T05:12:43.874Z,3.60
2018-12-27T05:13:48.892Z,3.70
2018-12-27T05:14:53.963Z,3.70
2018-12-27T05:15:59.187Z,3.70
2018-12-27T05:17:04.199Z,3.70
2018-12-27T05:18:09.276Z,3.60
2018-12-27T05:19:14.444Z,3.60
2018-12-27T05:20:19.431Z,3.80
2018-12-27T05:21:24.495Z,3.60
2018-12-27T05:22:29.540Z,3.60
2018-12-27T05:23:35.079Z,3.60
2018-12-27T05:24:42.909Z,3.50
2018-12-27T05:25:48.332Z,3.60
2018-12-27T05:26:53.576Z,3.60
2018-12-27T05:27:58.791Z,3.70
2018-12-27T05:29:04.272Z,3.60
2018-12-27T05:30:10.138Z,3.60
2018-12-27T05:31:17.664Z,3.70
2018-12-27T05:32:23.082Z,3.60
2018-12-27T05:33:28.179Z,3.50
2018-12-27T05:34:33.228Z,3.60
2018-12-27T05:35:38.437Z,3.50
2018-12-27T05:36:43.463Z,3.60
2018-12-27T05:37:48.522Z,3.50
2018-12-27T05:38:53.566Z,3.50
2018-12-27T05:39:58.967Z,3.50
2018-12-27T05:41:04.215Z,3.40
2018-12-27T05:42:09.495Z,3.40
2018-12-27T05:43:14.510Z,3.50
2018-12-27T05:44:19.547Z,3.50
2018-12-27T05:45:24.566Z,3.50
2018-12-27T05:46:29.607Z,3.50
2018-12-27T05:47:34.696Z,3.50
2018-12-27T05:48:39.703Z,3.40
2018-12-27T05:49:44.719Z,3.40
2018-12-27T05:50:49.734Z,3.50
2018-12-27T05:51:55.163Z,3.50
2018-12-27T05:53:00.346Z,3.50
2018-12-27T05:54:05.535Z,3.50
2018-12-27T05:55:10.583Z,3.40
2018-12-27T05:56:15.611Z,3.50
2018-12-27T05:57:20.654Z,3.40
2018-12-27T05:58:25.729Z,3.40
2018-12-27T05:59:30.793Z,3.40
2018-12-27T06:00:36.270Z,3.40
2018-12-27T06:01:44.370Z,3.40
2018-12-27T06:02:49.437Z,3.40
2018-12-27T06:03:54.431Z,3.40
2018-12-27T06:04:59.436Z,3.40
2018-12-27T06:06:04.462Z,3.40
2018-12-27T06:07:10.818Z,3.40
2018-12-27T06:08:15.840Z,3.40
2018-12-27T06:09:20.967Z,3.40
2018-12-27T06:10:25.971Z,3.40
2018-12-27T06:11:31.088Z,3.40
2018-12-27T06:12:38.703Z,3.40
2018-12-27T06:13:43.764Z,3.40
2018-12-27T06:14:51.563Z,3.40
2018-12-27T06:15:56.688Z,3.40
2018-12-27T06:17:01.812Z,3.40
2018-12-27T06:18:06.861Z,3.40
2018-12-27T06:19:11.880Z,3.40
2018-12-27T06:20:16.910Z,3.30
2018-12-27T06:21:22.003Z,3.40
2018-12-27T06:22:27.471Z,3.40
2018-12-27T06:23:32.510Z,3.40
2018-12-27T06:24:41.163Z,3.40
2018-12-27T06:25:46.165Z,3.40
2018-12-27T06:26:57.411Z,3.40
2018-12-27T06:28:05.150Z,3.40
2018-12-27T06:29:10.649Z,3.40
2018-12-27T06:30:15.798Z,3.30
2018-12-27T06:31:21.374Z,3.50
2018-12-27T06:32:26.627Z,3.40
2018-12-27T06:33:32.099Z,3.40
2018-12-27T06:34:41.426Z,3.40
2018-12-27T06:35:45.250Z,3.30
2018-12-27T06:36:56.389Z,3.30
2018-12-27T06:38:11.430Z,3.30
2018-12-27T06:39:22.645Z,3.30
2018-12-27T06:40:28.079Z,3.30
2018-12-27T06:41:33.745Z,3.30
2018-12-27T06:42:38.978Z,3.30
2018-12-27T06:43:44.549Z,3.30
2018-12-27T06:44:49.742Z,3.30
2018-12-27T06:46:08.332Z,3.30
2018-12-27T06:47:22.653Z,3.30
2018-12-27T06:48:28.543Z,3.30
2018-12-27T06:49:37.747Z,3.30
2018-12-27T06:50:43.032Z,3.30
2018-12-27T06:51:49.224Z,3.30
2018-12-27T06:52:55.014Z,3.30
2018-12-27T06:54:03.073Z,3.30
2018-12-27T06:55:09.047Z,3.30
2018-12-27T06:56:24.786Z,3.30
2018-12-27T06:57:33.655Z,3.30
2018-12-27T06:58:38.882Z,3.30
2018-12-27T06:59:44.035Z,3.30
2018-12-27T07:00:50.874Z,3.20
2018-12-27T07:01:57.466Z,3.20
2018-12-27T07:03:02.985Z,3.20
2018-12-27T07:04:08.026Z,3.20
2018-12-27T07:05:15.526Z,3.20
2018-12-27T07:06:26.971Z,3.20
2018-12-27T07:07:34.199Z,3.10
2018-12-27T07:08:39.375Z,3.10
2018-12-27T07:09:44.491Z,3.10
2018-12-27T07:10:50.048Z,3.00
2018-12-27T07:11:56.406Z,3.00
2018-12-27T07:13:01.700Z,3.00
2018-12-27T07:14:07.131Z,3.00
2018-12-27T07:15:12.315Z,3.00
2018-12-27T07:16:17.526Z,3.00
2018-12-27T07:17:23.755Z,3.00
2018-12-27T07:18:28.779Z,3.00
2018-12-27T07:19:34.889Z,3.00
2018-12-27T07:20:46.673Z,3.00
2018-12-27T07:21:53.112Z,3.00
2018-12-27T07:23:00.951Z,3.00
2018-12-27T07:24:06.051Z,3.00
2018-12-27T07:25:11.204Z,3.00
2018-12-27T07:26:16.215Z,3.00
2018-12-27T07:27:21.235Z,2.90
2018-12-27T07:28:27.447Z,3.00
2018-12-27T07:29:35.803Z,3.00
2018-12-27T07:30:44.306Z,2.90
2018-12-27T07:31:49.506Z,2.90
2018-12-27T07:32:54.996Z,2.90
2018-12-27T07:34:01.402Z,2.90
2018-12-27T07:35:06.605Z,2.90
2018-12-27T07:36:11.655Z,2.90
2018-12-27T07:37:16.675Z,2.90
2018-12-27T07:38:23.566Z,2.90
2018-12-27T07:39:28.576Z,2.90
2018-12-27T07:40:33.652Z,2.90
2018-12-27T07:41:38.847Z,2.90
2018-12-27T07:42:44.940Z,2.90
2018-12-27T07:44:00.359Z,2.90
2018-12-27T07:45:08.413Z,2.90
2018-12-27T07:46:13.543Z,3.00
2018-12-27T07:47:18.611Z,2.90
2018-12-27T07:48:23.799Z,3.10
2018-12-27T07:49:29.221Z,2.90
2018-12-27T07:50:34.231Z,2.90
2018-12-27T07:51:39.264Z,2.90
2018-12-27T07:52:45.943Z,3.00
2018-12-27T07:53:51.016Z,3.00
2018-12-27T07:54:56.570Z,3.00
2018-12-27T07:56:01.660Z,3.00
2018-12-27T07:57:06.862Z,3.00
2018-12-27T07:58:14.883Z,3.10
2018-12-27T07:59:20.512Z,3.50
2018-12-27T08:00:25.648Z,3.10
2018-12-27T08:01:31.117Z,3.20
2018-12-27T08:02:38.532Z,3.20
2018-12-27T08:03:43.541Z,3.20
2018-12-27T08:04:50.146Z,3.20
2018-12-27T08:05:55.171Z,3.10
2018-12-27T08:07:00.799Z,3.20
2018-12-27T08:08:06.178Z,3.20
2018-12-27T08:09:11.349Z,3.20
2018-12-27T08:10:16.476Z,3.20
2018-12-27T08:11:21.503Z,3.20
2018-12-27T08:12:28.889Z,3.20
2018-12-27T08:13:33.931Z,3.20
2018-12-27T08:14:41.451Z,3.10
2018-12-27T08:15:49.012Z,3.20
2018-12-27T08:16:54.068Z,3.10
2018-12-27T08:17:59.495Z,3.10
2018-12-27T08:19:04.573Z,3.20
2018-12-27T08:20:10.007Z,3.20
2018-12-27T08:21:16.344Z,3.20
2018-12-27T08:22:21.364Z,3.20
2018-12-27T08:23:26.390Z,3.20
2018-12-27T08:24:36.240Z,3.60
2018-12-27T08:25:41.520Z,3.20
2018-12-27T08:26:48.691Z,3.20
2018-12-27T08:27:53.913Z,3.10
2018-12-27T08:29:01.537Z,3.20
2018-12-27T08:30:08.196Z,3.20
2018-12-27T08:31:13.981Z,3.20
2018-12-27T08:32:20.519Z,3.20
2018-12-27T08:33:25.588Z,3.20
2018-12-27T08:34:33.435Z,3.20
2018-12-27T08:35:38.974Z,3.30
2018-12-27T08:36:44.029Z,3.40
2018-12-27T08:37:50.311Z,3.30
2018-12-27T08:38:55.871Z,3.30
2018-12-27T08:40:03.834Z,3.20
2018-12-27T08:41:09.053Z,3.30
2018-12-27T08:42:21.107Z,3.40
2018-12-27T08:43:26.294Z,3.40
2018-12-27T08:44:33.635Z,3.60
2018-12-27T08:45:39.303Z,3.40
2018-12-27T08:46:44.431Z,3.40
2018-12-27T08:47:49.564Z,3.50
2018-12-27T08:49:01.820Z,3.50
2018-12-27T08:50:08.984Z,3.60
2018-12-27T08:51:14.271Z,3.60
2018-12-27T08:52:21.711Z,3.60
2018-12-27T08:53:27.420Z,3.60
2018-12-27T08:54:32.561Z,3.70
2018-12-27T08:55:48.421Z,3.60
2018-12-27T08:56:58.312Z,3.70
2018-12-27T08:58:07.072Z,3.70
2018-12-27T08:59:12.340Z,3.80
2018-12-27T09:00:19.007Z,3.80
2018-12-27T09:01:43.461Z,3.80
2018-12-27T09:02:50.119Z,3.80
2018-12-27T09:04:00.533Z,4.00
2018-12-27T09:05:06.800Z,3.90
2018-12-27T09:06:12.013Z,3.90
2018-12-27T09:07:17.298Z,3.90
2018-12-27T09:08:24.178Z,3.90
2018-12-27T09:09:29.792Z,3.90
2018-12-27T09:10:35.519Z,4.00
2018-12-27T09:11:40.839Z,4.00
2018-12-27T09:12:47.382Z,4.00
2018-12-27T09:14:02.275Z,4.00
2018-12-27T09:15:10.246Z,4.00
2018-12-27T09:16:23.686Z,4.10
2018-12-27T09:17:28.696Z,4.10
2018-12-27T09:18:33.817Z,4.20
2018-12-27T09:19:39.887Z,4.20
2018-12-27T09:20:45.934Z,4.30
2018-12-27T09:21:53.195Z,4.30
2018-12-27T09:23:01.579Z,4.30
2018-12-27T09:24:09.250Z,4.30
2018-12-27T09:25:15.634Z,4.30
2018-12-27T09:26:21.835Z,4.30
2018-12-27T09:27:28.625Z,4.30
2018-12-27T09:28:34.281Z,4.50
2018-12-27T09:29:40.326Z,4.30
2018-12-27T09:30:45.333Z,4.30
2018-12-27T09:31:53.114Z,4.30
2018-12-27T09:32:59.807Z,4.30
2018-12-27T09:34:09.047Z,4.30
2018-12-27T09:35:14.190Z,4.30
2018-12-27T09:36:19.230Z,4.30
2018-12-27T16:33:26.048Z,6.90
2018-12-27T16:34:34.684Z,6.90
2018-12-27T16:35:40.280Z,6.80
2018-12-27T16:36:51.396Z,6.80
2018-12-27T16:37:56.639Z,6.80
2018-12-27T16:39:03.114Z,6.70
2018-12-27T16:40:12.481Z,6.70
2018-12-27T16:41:17.445Z,6.70
2018-12-27T16:42:22.689Z,7.10
2018-12-27T16:43:30.980Z,6.70
2018-12-27T16:44:35.981Z,6.70
2018-12-27T16:45:41.216Z,6.60
2018-12-27T16:51:24.497Z,6.70
2018-12-27T16:52:36.724Z,6.60
2018-12-27T16:53:43.082Z,6.70
2018-12-27T16:54:48.087Z,6.60
2018-12-27T16:55:53.228Z,6.60
2018-12-27T17:08:22.971Z,6.70
2018-12-27T17:09:32.689Z,6.70
2018-12-27T17:10:37.485Z,6.70
2018-12-27T17:11:42.796Z,6.70
2018-12-27T17:12:47.650Z,6.60
2018-12-27T17:17:24.368Z,6.70
2018-12-27T17:19:38.415Z,6.80
2018-12-27T17:20:43.958Z,6.80
2018-12-27T17:21:49.191Z,6.80
2018-12-27T17:22:54.370Z,6.80
2018-12-27T17:23:59.337Z,6.80
2018-12-27T17:25:04.955Z,6.80
2018-12-27T17:26:10.630Z,6.80
2018-12-27T17:27:16.194Z,6.70
2018-12-27T17:28:22.454Z,6.70
2018-12-27T17:29:31.203Z,6.70
2018-12-27T17:30:40.169Z,6.70
2018-12-27T17:31:48.674Z,6.70
2018-12-27T17:32:58.483Z,6.70
2018-12-27T17:34:03.518Z,6.70
2018-12-27T17:35:08.559Z,6.70
2018-12-27T17:36:13.613Z,6.70
2018-12-27T17:37:23.279Z,6.70
2018-12-27T17:38:25.530Z,6.60
2018-12-27T17:39:32.186Z,6.70
2018-12-27T17:40:37.614Z,6.70
2018-12-27T17:41:42.901Z,6.70
2018-12-27T17:42:49.423Z,6.70
2018-12-27T17:43:54.897Z,6.60
2018-12-27T17:45:00.043Z,6.60
2018-12-27T17:46:05.396Z,6.60
2018-12-27T17:47:10.427Z,6.60
2018-12-27T17:48:15.302Z,6.60
2018-12-27T17:49:20.141Z,6.60
2018-12-27T17:50:25.479Z,6.60
2018-12-27T17:51:38.823Z,6.60
2018-12-27T17:52:43.813Z,6.60
2018-12-27T17:53:49.077Z,6.60
2018-12-27T17:54:54.138Z,6.60
2018-12-27T17:55:59.577Z,6.60
2018-12-27T17:57:04.489Z,6.60
2018-12-27T17:59:41.154Z,6.60
2018-12-27T18:00:50.755Z,6.60
2018-12-27T18:02:01.317Z,6.60
2018-12-27T18:03:09.176Z,6.60
2018-12-27T18:04:16.278Z,6.60
2018-12-27T18:05:21.294Z,6.60
2018-12-27T18:06:33.215Z,6.60
2018-12-27T18:07:41.692Z,6.60
2018-12-27T18:08:55.763Z,6.60
2018-12-27T18:10:08.032Z,6.60
2018-12-27T18:11:26.566Z,6.60
2018-12-27T18:12:34.683Z,6.60
2018-12-27T18:13:46.686Z,6.60
2018-12-27T18:15:03.787Z,6.60
2018-12-27T18:16:08.775Z,6.60
2018-12-27T18:17:15.602Z,6.70
2018-12-27T18:18:28.413Z,6.60
2018-12-27T18:19:40.346Z,6.60
2018-12-27T18:20:46.684Z,6.60
2018-12-27T18:21:51.709Z,6.60
2018-12-27T18:23:03.204Z,6.60
2018-12-27T18:24:13.021Z,6.50
2018-12-27T18:25:20.275Z,6.50
2018-12-27T18:26:26.380Z,6.50
2018-12-27T18:27:42.484Z,6.60
2018-12-27T18:28:50.812Z,6.60
2018-12-27T18:30:00.219Z,6.50
2018-12-27T18:31:14.242Z,6.50
2018-12-27T18:32:19.190Z,6.50
2018-12-27T18:33:27.334Z,6.50
2018-12-27T18:34:32.187Z,6.50
2018-12-27T18:35:37.254Z,6.40
2018-12-27T18:36:58.100Z,6.40
2018-12-27T18:38:03.250Z,6.40
2018-12-27T18:39:13.173Z,6.40
2018-12-27T18:40:29.962Z,6.40
2018-12-27T18:41:39.058Z,6.40
2018-12-27T18:42:46.879Z,6.40
2018-12-27T18:43:59.433Z,6.30
2018-12-27T18:45:16.639Z,6.30
2018-12-27T18:46:24.903Z,6.30
2018-12-27T18:47:36.364Z,6.30
2018-12-27T18:48:47.161Z,6.30
2018-12-27T18:49:54.154Z,6.30
2018-12-27T18:51:02.085Z,6.30
2018-12-27T18:52:20.350Z,6.30
2018-12-27T18:53:39.642Z,6.30
2018-12-27T18:54:58.289Z,6.30
2018-12-27T18:56:03.519Z,6.30
2018-12-27T18:57:19.227Z,6.30
2018-12-27T18:58:29.075Z,6.30
2018-12-27T18:59:36.587Z,6.30
2018-12-27T19:00:49.280Z,6.30
2018-12-27T19:01:59.584Z,6.20
2018-12-27T19:03:10.443Z,6.20
2018-12-27T19:04:19.176Z,6.20
2018-12-27T19:05:39.012Z,6.20
2018-12-27T19:06:41.759Z,6.20
2018-12-27T19:07:52.113Z,6.20
2018-12-27T19:08:58.225Z,6.20
2018-12-27T19:10:06.761Z,6.20
2018-12-27T19:11:47.597Z,6.20
2018-12-27T19:13:18.718Z,6.20
2018-12-27T19:14:24.192Z,6.20
2018-12-27T19:16:06.692Z,6.20
2018-12-27T19:17:27.914Z,6.10
2018-12-27T19:18:42.394Z,6.20
2018-12-27T19:19:49.080Z,6.20
2018-12-27T19:21:21.257Z,6.20
2018-12-27T19:22:54.210Z,6.20
2018-12-27T19:24:03.622Z,6.20
2018-12-27T19:25:10.346Z,6.20
2018-12-27T19:26:15.438Z,6.20
2018-12-27T19:27:31.801Z,6.20
2018-12-27T19:28:39.904Z,6.20
2018-12-27T19:29:44.574Z,6.20
2018-12-27T19:30:49.456Z,6.20
2018-12-27T19:31:54.415Z,6.20
2018-12-27T19:33:02.498Z,6.20
2018-12-27T19:34:07.693Z,6.20
2018-12-27T19:35:14.023Z,6.10
2018-12-27T19:36:19.198Z,6.10
2018-12-27T19:37:24.669Z,6.10
2018-12-27T19:38:29.787Z,6.10
2018-12-27T19:39:34.842Z,6.10
2018-12-27T19:40:44.092Z,6.10
2018-12-27T19:41:52.505Z,6.10
2018-12-27T19:43:03.707Z,6.10
2018-12-27T19:44:09.553Z,6.00
2018-12-27T19:45:16.088Z,6.00
2018-12-27T19:46:22.368Z,6.00
2018-12-27T19:47:59.029Z,6.00
2018-12-27T19:49:04.476Z,6.00
2018-12-27T19:50:11.359Z,6.00
2018-12-27T19:51:23.074Z,5.90
2018-12-27T19:52:27.855Z,5.90
2018-12-27T19:53:36.154Z,5.90
2018-12-27T19:54:43.044Z,5.80
2018-12-27T19:55:49.093Z,5.90
2018-12-27T19:56:55.345Z,5.90
2018-12-27T19:58:03.666Z,5.90
2018-12-27T19:59:55.071Z,5.80
2018-12-27T20:01:07.858Z,5.80
2018-12-27T20:02:32.391Z,5.80
2018-12-27T20:03:43.407Z,5.80
2018-12-27T20:05:03.714Z,5.80
2018-12-27T20:06:11.326Z,5.70
2018-12-27T20:07:31.276Z,5.70
2018-12-27T20:08:39.506Z,5.70
2018-12-27T20:09:59.024Z,5.70
2018-12-27T20:11:08.780Z,5.60
2018-12-27T20:12:46.099Z,5.60
2018-12-27T20:13:55.963Z,5.60
2018-12-27T20:15:13.282Z,5.60
2018-12-27T20:16:42.754Z,5.60
2018-12-27T20:18:47.219Z,5.60
2018-12-27T20:19:58.695Z,5.60
2018-12-27T20:21:05.970Z,5.60
2018-12-27T20:22:14.084Z,5.60
2018-12-27T20:23:28.265Z,5.70
2018-12-27T20:24:42.541Z,5.70
2018-12-27T20:25:51.565Z,5.70
2018-12-27T20:26:57.224Z,5.70
2018-12-27T20:28:05.423Z,5.70
2018-12-27T20:29:10.350Z,5.70
2018-12-27T20:30:17.636Z,5.80
2018-12-27T20:31:27.094Z,5.80
2018-12-27T20:32:34.311Z,5.80
2018-12-27T20:33:42.440Z,5.80
2018-12-27T20:34:48.198Z,5.80
2018-12-27T20:35:53.410Z,5.80
2018-12-27T20:37:00.066Z,5.80
2018-12-27T20:38:08.417Z,5.90
2018-12-27T20:39:13.447Z,5.80
2018-12-27T20:40:23.786Z,5.90
2018-12-27T20:41:31.247Z,5.90
2018-12-27T20:42:37.477Z,6.00
2018-12-27T20:43:42.293Z,5.90
2018-12-27T20:44:48.509Z,5.90
2018-12-27T20:46:25.076Z,5.90
2018-12-27T20:47:35.305Z,5.90
2018-12-27T20:48:44.562Z,5.90
2018-12-27T20:49:53.471Z,5.90
2018-12-27T20:50:58.960Z,5.80
2018-12-27T20:52:09.226Z,5.80
2018-12-27T20:53:15.191Z,5.80
2018-12-27T20:54:20.356Z,5.80
2018-12-27T20:55:29.503Z,5.80
2018-12-27T20:56:34.757Z,5.80
2018-12-27T20:57:40.324Z,5.80
2018-12-27T20:58:52.193Z,5.80
2018-12-27T21:00:02.331Z,5.80
2018-12-27T21:01:10.138Z,5.80
2018-12-27T21:02:18.311Z,5.70
2018-12-27T21:03:25.209Z,5.70
2018-12-27T21:04:36.089Z,5.70
2018-12-27T21:05:39.095Z,5.70
2018-12-27T21:06:46.408Z,5.70
2018-12-27T21:07:51.937Z,5.70
2018-12-27T21:08:57.486Z,5.70
2018-12-27T21:10:05.503Z,5.70
2018-12-27T21:11:15.000Z,5.70
2018-12-27T21:12:20.812Z,5.70
2018-12-27T21:13:29.144Z,5.70
2018-12-27T21:14:34.094Z,5.70
2018-12-27T21:15:39.273Z,5.70
2018-12-27T21:16:46.077Z,5.70
2018-12-27T21:17:54.414Z,5.70
2018-12-27T21:18:59.379Z,5.70
2018-12-27T21:20:04.428Z,5.80
2018-12-27T21:21:10.029Z,5.80
2018-12-27T21:22:15.330Z,5.80
2018-12-27T21:23:23.900Z,5.80
2018-12-27T21:24:37.974Z,5.80
2018-12-27T21:25:51.241Z,5.80
2018-12-27T21:26:57.118Z,5.70
2018-12-27T21:28:02.004Z,5.70
2018-12-27T21:29:10.536Z,5.80
2018-12-27T21:30:17.460Z,5.80
2018-12-27T21:31:23.025Z,5.80
2018-12-27T21:32:28.392Z,5.80
2018-12-27T21:33:36.962Z,5.80
2018-12-27T21:34:41.915Z,5.70
2018-12-27T21:35:49.549Z,5.70
2018-12-27T21:36:54.775Z,5.70
2018-12-27T21:38:00.182Z,5.80
2018-12-27T21:39:07.648Z,5.70
2018-12-27T21:40:15.247Z,5.70
2018-12-27T21:41:31.097Z,5.70
2018-12-27T21:42:52.012Z,5.70
2018-12-27T21:43:44.463Z,5.70
2018-12-27T21:45:03.371Z,5.70
2018-12-27T21:46:24.177Z,5.70
2018-12-27T21:47:38.281Z,5.70
2018-12-27T21:49:13.900Z,5.70
2018-12-27T21:50:25.631Z,5.60
2018-12-27T21:51:37.444Z,5.60
2018-12-27T21:52:48.540Z,5.60
2018-12-27T21:53:58.480Z,5.60
2018-12-27T21:55:33.191Z,5.60
2018-12-27T21:57:27.209Z,5.60
2018-12-27T21:59:21.093Z,5.50
2018-12-27T22:00:35.486Z,5.50
2018-12-27T22:02:05.601Z,5.50
2018-12-27T22:03:33.684Z,5.50
2018-12-27T22:04:52.485Z,5.50
2018-12-27T22:06:23.196Z,5.50
2018-12-27T22:08:02.067Z,5.50
2018-12-27T22:09:10.687Z,5.50
2018-12-27T22:10:28.090Z,5.60
2018-12-27T22:11:53.801Z,5.50
2018-12-27T22:13:06.618Z,5.50
2018-12-27T22:14:23.383Z,5.50
2018-12-27T22:15:48.327Z,5.60
2018-12-27T22:16:59.571Z,5.50
2018-12-27T22:18:12.013Z,5.50
2018-12-27T22:19:26.315Z,5.50
2018-12-27T22:20:32.753Z,5.50
2018-12-27T22:21:46.106Z,5.50
2018-12-27T22:22:59.389Z,5.50